sensor_id;sensor_type;location;lat;lon;timestamp;P1;durP1;ratioP1;P2;durP2;ratioP2
75823;SDS011;64457;51.976;9.834;2023-09-19T00:00:56;5.50;;;1.07;;
75823;SDS011;64457;51.976;9.834;2023-09-19T00:03:26;5.83;;;1.33;;
75823;SDS011;64457;51.976;9.834;2023-09-19T00:05:54;5.80;;;1.30;;
75823;SDS011;64457;51.976;9.834;2023-09-19T00:08:22;13.10;;;1.60;;
75823;SDS011;64457;51.976;9.834;2023-09-19T00:10:49;10.83;;;1.70;;
75823;SDS011;64457;51.976;9.834;2023-09-19T00:13:19;6.20;;;1.67;;
75823;SDS011;64457;51.976;9.834;2023-09-19T00:15:47;5.53;;;1.43;;
75823;SDS011;64457;51.976;9.834;2023-09-19T00:18:16;5.70;;;1.50;;
75823;SDS011;64457;51.976;9.834;2023-09-19T00:20:47;6.60;;;1.60;;
75823;SDS011;64457;51.976;9.834;2023-09-19T00:23:16;6.50;;;1.63;;
75823;SDS011;64457;51.976;9.834;2023-09-19T00:25:44;6.23;;;1.70;;
75823;SDS011;64457;51.976;9.834;2023-09-19T00:28:11;5.80;;;1.60;;
75823;SDS011;64457;51.976;9.834;2023-09-19T00:30:42;8.00;;;1.70;;
75823;SDS011;64457;51.976;9.834;2023-09-19T00:33:09;6.97;;;1.70;;
75823;SDS011;64457;51.976;9.834;2023-09-19T00:35:48;8.47;;;2.03;;
75823;SDS011;64457;51.976;9.834;2023-09-19T00:38:16;7.43;;;1.90;;
75823;SDS011;64457;51.976;9.834;2023-09-19T00:40:46;5.67;;;1.50;;
75823;SDS011;64457;51.976;9.834;2023-09-19T00:43:16;7.87;;;2.13;;
75823;SDS011;64457;51.976;9.834;2023-09-19T00:45:44;7.70;;;1.73;;
75823;SDS011;64457;51.976;9.834;2023-09-19T00:48:16;8.10;;;2.13;;
75823;SDS011;64457;51.976;9.834;2023-09-19T00:50:45;6.90;;;1.80;;
75823;SDS011;64457;51.976;9.834;2023-09-19T00:53:16;9.33;;;1.70;;
75823;SDS011;64457;51.976;9.834;2023-09-19T00:55:50;7.30;;;1.70;;
75823;SDS011;64457;51.976;9.834;2023-09-19T00:58:18;7.50;;;2.10;;
75823;SDS011;64457;51.976;9.834;2023-09-19T01:00:47;7.13;;;2.00;;
75823;SDS011;64457;51.976;9.834;2023-09-19T01:03:15;7.43;;;1.93;;
75823;SDS011;64457;51.976;9.834;2023-09-19T01:05:43;6.70;;;1.83;;
75823;SDS011;64457;51.976;9.834;2023-09-19T01:08:13;6.00;;;1.60;;
75823;SDS011;64457;51.976;9.834;2023-09-19T01:10:43;7.90;;;2.37;;
75823;SDS011;64457;51.976;9.834;2023-09-19T01:13:21;6.07;;;1.80;;
75823;SDS011;64457;51.976;9.834;2023-09-19T01:15:59;9.03;;;1.87;;
75823;SDS011;64457;51.976;9.834;2023-09-19T01:18:35;11.93;;;1.97;;
75823;SDS011;64457;51.976;9.834;2023-09-19T01:21:20;7.80;;;1.93;;
75823;SDS011;64457;51.976;9.834;2023-09-19T01:24:05;9.73;;;2.40;;
75823;SDS011;64457;51.976;9.834;2023-09-19T01:26:56;8.03;;;2.23;;
75823;SDS011;64457;51.976;9.834;2023-09-19T01:29:46;11.90;;;2.47;;
75823;SDS011;64457;51.976;9.834;2023-09-19T01:32:17;12.70;;;2.43;;
75823;SDS011;64457;51.976;9.834;2023-09-19T01:34:47;6.30;;;2.07;;
75823;SDS011;64457;51.976;9.834;2023-09-19T01:37:18;7.03;;;2.07;;
75823;SDS011;64457;51.976;9.834;2023-09-19T01:39:51;10.33;;;2.27;;
75823;SDS011;64457;51.976;9.834;2023-09-19T01:42:35;7.43;;;2.20;;
75823;SDS011;64457;51.976;9.834;2023-09-19T01:45:11;7.80;;;2.40;;
75823;SDS011;64457;51.976;9.834;2023-09-19T01:47:50;10.40;;;2.30;;
75823;SDS011;64457;51.976;9.834;2023-09-19T01:50:24;7.30;;;2.10;;
75823;SDS011;64457;51.976;9.834;2023-09-19T01:52:59;7.47;;;2.07;;
75823;SDS011;64457;51.976;9.834;2023-09-19T01:55:35;6.70;;;2.33;;
75823;SDS011;64457;51.976;9.834;2023-09-19T01:58:12;7.80;;;2.20;;
75823;SDS011;64457;51.976;9.834;2023-09-19T02:00:44;7.77;;;2.43;;
75823;SDS011;64457;51.976;9.834;2023-09-19T02:03:19;6.50;;;2.30;;
75823;SDS011;64457;51.976;9.834;2023-09-19T02:05:49;7.40;;;2.13;;
75823;SDS011;64457;51.976;9.834;2023-09-19T02:08:19;6.97;;;2.53;;
75823;SDS011;64457;51.976;9.834;2023-09-19T02:10:49;7.77;;;2.03;;
75823;SDS011;64457;51.976;9.834;2023-09-19T02:13:18;11.27;;;2.43;;
75823;SDS011;64457;51.976;9.834;2023-09-19T02:15:46;7.60;;;2.30;;
75823;SDS011;64457;51.976;9.834;2023-09-19T02:18:15;6.10;;;2.13;;
75823;SDS011;64457;51.976;9.834;2023-09-19T02:20:44;7.80;;;2.70;;
75823;SDS011;64457;51.976;9.834;2023-09-19T02:23:12;7.63;;;2.83;;
75823;SDS011;64457;51.976;9.834;2023-09-19T02:25:42;6.93;;;2.30;;
75823;SDS011;64457;51.976;9.834;2023-09-19T02:28:10;9.80;;;3.07;;
75823;SDS011;64457;51.976;9.834;2023-09-19T02:30:38;6.60;;;2.27;;
75823;SDS011;64457;51.976;9.834;2023-09-19T02:33:05;13.37;;;2.50;;
75823;SDS011;64457;51.976;9.834;2023-09-19T02:35:33;16.13;;;3.10;;
75823;SDS011;64457;51.976;9.834;2023-09-19T02:38:05;8.70;;;2.87;;
75823;SDS011;64457;51.976;9.834;2023-09-19T02:40:36;10.23;;;3.03;;
75823;SDS011;64457;51.976;9.834;2023-09-19T02:43:05;8.27;;;2.63;;
75823;SDS011;64457;51.976;9.834;2023-09-19T02:45:34;12.87;;;2.80;;
75823;SDS011;64457;51.976;9.834;2023-09-19T02:48:03;8.90;;;3.00;;
75823;SDS011;64457;51.976;9.834;2023-09-19T02:50:32;13.83;;;3.23;;
75823;SDS011;64457;51.976;9.834;2023-09-19T02:53:01;9.80;;;2.87;;
75823;SDS011;64457;51.976;9.834;2023-09-19T02:55:33;9.87;;;2.77;;
75823;SDS011;64457;51.976;9.834;2023-09-19T02:58:03;9.00;;;3.27;;
75823;SDS011;64457;51.976;9.834;2023-09-19T03:00:36;12.37;;;3.40;;
75823;SDS011;64457;51.976;9.834;2023-09-19T03:03:07;11.73;;;2.77;;
75823;SDS011;64457;51.976;9.834;2023-09-19T03:05:37;8.47;;;2.83;;
75823;SDS011;64457;51.976;9.834;2023-09-19T03:08:05;8.47;;;3.00;;
75823;SDS011;64457;51.976;9.834;2023-09-19T03:10:36;10.87;;;2.73;;
75823;SDS011;64457;51.976;9.834;2023-09-19T03:13:04;12.93;;;3.10;;
75823;SDS011;64457;51.976;9.834;2023-09-19T03:15:34;8.57;;;2.70;;
75823;SDS011;64457;51.976;9.834;2023-09-19T03:18:04;13.50;;;2.80;;
75823;SDS011;64457;51.976;9.834;2023-09-19T03:20:32;7.47;;;2.43;;
75823;SDS011;64457;51.976;9.834;2023-09-19T03:23:00;17.03;;;3.10;;
75823;SDS011;64457;51.976;9.834;2023-09-19T03:25:31;9.50;;;3.33;;
75823;SDS011;64457;51.976;9.834;2023-09-19T03:28:03;7.20;;;2.43;;
75823;SDS011;64457;51.976;9.834;2023-09-19T03:30:32;8.83;;;2.70;;
75823;SDS011;64457;51.976;9.834;2023-09-19T03:33:02;9.57;;;2.77;;
75823;SDS011;64457;51.976;9.834;2023-09-19T03:35:31;7.90;;;2.90;;
75823;SDS011;64457;51.976;9.834;2023-09-19T03:38:00;8.90;;;2.77;;
75823;SDS011;64457;51.976;9.834;2023-09-19T03:40:29;10.03;;;3.00;;
75823;SDS011;64457;51.976;9.834;2023-09-19T03:43:00;9.63;;;2.67;;
75823;SDS011;64457;51.976;9.834;2023-09-19T03:45:29;9.23;;;2.90;;
75823;SDS011;64457;51.976;9.834;2023-09-19T03:47:57;8.00;;;2.67;;
75823;SDS011;64457;51.976;9.834;2023-09-19T03:50:24;13.23;;;3.27;;
75823;SDS011;64457;51.976;9.834;2023-09-19T03:52:55;7.70;;;3.10;;
75823;SDS011;64457;51.976;9.834;2023-09-19T03:55:23;8.30;;;2.90;;
75823;SDS011;64457;51.976;9.834;2023-09-19T03:57:51;9.83;;;3.00;;
75823;SDS011;64457;51.976;9.834;2023-09-19T04:00:19;11.23;;;3.40;;
75823;SDS011;64457;51.976;9.834;2023-09-19T04:02:51;10.47;;;2.90;;
75823;SDS011;64457;51.976;9.834;2023-09-19T04:05:21;9.47;;;3.00;;
75823;SDS011;64457;51.976;9.834;2023-09-19T04:07:50;11.77;;;3.47;;
75823;SDS011;64457;51.976;9.834;2023-09-19T04:10:19;13.03;;;3.63;;
75823;SDS011;64457;51.976;9.834;2023-09-19T04:12:51;11.20;;;3.40;;
75823;SDS011;64457;51.976;9.834;2023-09-19T04:15:19;9.63;;;3.57;;
75823;SDS011;64457;51.976;9.834;2023-09-19T04:17:48;13.40;;;3.43;;
75823;SDS011;64457;51.976;9.834;2023-09-19T04:20:17;12.57;;;2.90;;
75823;SDS011;64457;51.976;9.834;2023-09-19T04:22:45;12.50;;;3.47;;
75823;SDS011;64457;51.976;9.834;2023-09-19T04:25:12;8.77;;;3.20;;
75823;SDS011;64457;51.976;9.834;2023-09-19T04:27:40;12.23;;;3.80;;
75823;SDS011;64457;51.976;9.834;2023-09-19T04:30:09;13.00;;;3.83;;
75823;SDS011;64457;51.976;9.834;2023-09-19T04:32:40;11.93;;;3.27;;
75823;SDS011;64457;51.976;9.834;2023-09-19T04:35:10;10.67;;;3.70;;
75823;SDS011;64457;51.976;9.834;2023-09-19T04:37:38;12.03;;;3.73;;
75823;SDS011;64457;51.976;9.834;2023-09-19T04:40:07;13.30;;;3.83;;
75823;SDS011;64457;51.976;9.834;2023-09-19T04:42:42;12.13;;;3.90;;
75823;SDS011;64457;51.976;9.834;2023-09-19T04:45:11;11.80;;;3.80;;
75823;SDS011;64457;51.976;9.834;2023-09-19T04:47:41;15.53;;;3.90;;
75823;SDS011;64457;51.976;9.834;2023-09-19T04:50:11;19.67;;;3.90;;
75823;SDS011;64457;51.976;9.834;2023-09-19T04:52:39;12.57;;;3.70;;
75823;SDS011;64457;51.976;9.834;2023-09-19T04:55:10;12.93;;;3.60;;
75823;SDS011;64457;51.976;9.834;2023-09-19T04:57:41;12.57;;;3.37;;
75823;SDS011;64457;51.976;9.834;2023-09-19T05:00:12;12.67;;;4.00;;
75823;SDS011;64457;51.976;9.834;2023-09-19T05:02:41;13.93;;;3.50;;
75823;SDS011;64457;51.976;9.834;2023-09-19T05:05:11;10.50;;;3.40;;
75823;SDS011;64457;51.976;9.834;2023-09-19T05:07:42;10.27;;;3.23;;
75823;SDS011;64457;51.976;9.834;2023-09-19T05:10:11;13.10;;;3.50;;
75823;SDS011;64457;51.976;9.834;2023-09-19T05:12:40;12.53;;;3.63;;
75823;SDS011;64457;51.976;9.834;2023-09-19T05:15:11;18.30;;;3.53;;
75823;SDS011;64457;51.976;9.834;2023-09-19T05:17:39;11.57;;;2.83;;
75823;SDS011;64457;51.976;9.834;2023-09-19T05:20:08;12.70;;;3.73;;
75823;SDS011;64457;51.976;9.834;2023-09-19T05:22:40;10.60;;;3.17;;
75823;SDS011;64457;51.976;9.834;2023-09-19T05:25:08;11.03;;;2.90;;
75823;SDS011;64457;51.976;9.834;2023-09-19T05:27:36;11.03;;;3.13;;
75823;SDS011;64457;51.976;9.834;2023-09-19T05:30:08;12.03;;;2.60;;
75823;SDS011;64457;51.976;9.834;2023-09-19T05:32:40;10.60;;;3.20;;
75823;SDS011;64457;51.976;9.834;2023-09-19T05:35:10;11.07;;;3.10;;
75823;SDS011;64457;51.976;9.834;2023-09-19T05:37:39;12.47;;;3.03;;
75823;SDS011;64457;51.976;9.834;2023-09-19T05:40:07;10.90;;;2.60;;
75823;SDS011;64457;51.976;9.834;2023-09-19T05:42:37;11.03;;;2.80;;
75823;SDS011;64457;51.976;9.834;2023-09-19T05:45:06;10.97;;;2.90;;
75823;SDS011;64457;51.976;9.834;2023-09-19T05:47:37;10.87;;;2.80;;
75823;SDS011;64457;51.976;9.834;2023-09-19T05:50:06;12.30;;;2.90;;
75823;SDS011;64457;51.976;9.834;2023-09-19T05:52:36;11.90;;;2.67;;
75823;SDS011;64457;51.976;9.834;2023-09-19T05:55:03;9.83;;;3.13;;
75823;SDS011;64457;51.976;9.834;2023-09-19T05:57:32;16.90;;;3.10;;
75823;SDS011;64457;51.976;9.834;2023-09-19T06:00:00;13.20;;;3.50;;
75823;SDS011;64457;51.976;9.834;2023-09-19T06:02:29;15.77;;;3.33;;
75823;SDS011;64457;51.976;9.834;2023-09-19T06:04:58;14.17;;;3.30;;
75823;SDS011;64457;51.976;9.834;2023-09-19T06:07:26;12.33;;;2.37;;
75823;SDS011;64457;51.976;9.834;2023-09-19T06:10:04;10.80;;;2.43;;
75823;SDS011;64457;51.976;9.834;2023-09-19T06:12:33;14.20;;;2.60;;
75823;SDS011;64457;51.976;9.834;2023-09-19T06:15:05;14.60;;;3.17;;
75823;SDS011;64457;51.976;9.834;2023-09-19T06:17:34;11.87;;;2.40;;
75823;SDS011;64457;51.976;9.834;2023-09-19T06:20:03;16.33;;;2.17;;
75823;SDS011;64457;51.976;9.834;2023-09-19T06:22:39;13.10;;;2.43;;
75823;SDS011;64457;51.976;9.834;2023-09-19T06:25:10;15.07;;;2.37;;
75823;SDS011;64457;51.976;9.834;2023-09-19T06:27:44;14.20;;;2.50;;
75823;SDS011;64457;51.976;9.834;2023-09-19T06:30:12;14.10;;;2.63;;
75823;SDS011;64457;51.976;9.834;2023-09-19T06:32:40;15.60;;;2.73;;
75823;SDS011;64457;51.976;9.834;2023-09-19T06:35:10;11.63;;;2.53;;
75823;SDS011;64457;51.976;9.834;2023-09-19T06:37:39;13.40;;;2.30;;
75823;SDS011;64457;51.976;9.834;2023-09-19T06:40:10;12.67;;;2.23;;
75823;SDS011;64457;51.976;9.834;2023-09-19T06:42:40;11.00;;;2.30;;
75823;SDS011;64457;51.976;9.834;2023-09-19T06:45:09;11.10;;;2.33;;
75823;SDS011;64457;51.976;9.834;2023-09-19T06:47:38;13.87;;;3.00;;
75823;SDS011;64457;51.976;9.834;2023-09-19T06:50:06;11.10;;;1.93;;
75823;SDS011;64457;51.976;9.834;2023-09-19T06:52:39;11.93;;;2.30;;
75823;SDS011;64457;51.976;9.834;2023-09-19T06:55:06;13.20;;;2.40;;
75823;SDS011;64457;51.976;9.834;2023-09-19T06:57:38;12.67;;;2.47;;
75823;SDS011;64457;51.976;9.834;2023-09-19T07:00:06;12.70;;;2.60;;
75823;SDS011;64457;51.976;9.834;2023-09-19T07:02:41;10.87;;;2.53;;
75823;SDS011;64457;51.976;9.834;2023-09-19T07:05:08;11.30;;;2.20;;
75823;SDS011;64457;51.976;9.834;2023-09-19T07:07:35;11.90;;;2.57;;
75823;SDS011;64457;51.976;9.834;2023-09-19T07:10:03;13.40;;;2.23;;
75823;SDS011;64457;51.976;9.834;2023-09-19T07:12:33;13.43;;;2.70;;
75823;SDS011;64457;51.976;9.834;2023-09-19T07:15:00;15.63;;;2.50;;
75823;SDS011;64457;51.976;9.834;2023-09-19T07:17:28;8.70;;;2.00;;
75823;SDS011;64457;51.976;9.834;2023-09-19T07:19:56;10.00;;;2.00;;
75823;SDS011;64457;51.976;9.834;2023-09-19T07:22:23;12.10;;;2.27;;
75823;SDS011;64457;51.976;9.834;2023-09-19T07:24:53;9.80;;;2.10;;
75823;SDS011;64457;51.976;9.834;2023-09-19T07:27:20;11.00;;;1.97;;
75823;SDS011;64457;51.976;9.834;2023-09-19T07:29:49;8.23;;;1.73;;
75823;SDS011;64457;51.976;9.834;2023-09-19T07:32:17;9.93;;;1.67;;
75823;SDS011;64457;51.976;9.834;2023-09-19T07:34:45;9.30;;;1.87;;
75823;SDS011;64457;51.976;9.834;2023-09-19T07:37:12;14.13;;;2.10;;
75823;SDS011;64457;51.976;9.834;2023-09-19T07:39:40;12.23;;;2.50;;
75823;SDS011;64457;51.976;9.834;2023-09-19T07:42:08;13.93;;;1.83;;
75823;SDS011;64457;51.976;9.834;2023-09-19T07:44:36;11.30;;;2.00;;
75823;SDS011;64457;51.976;9.834;2023-09-19T07:47:06;11.57;;;2.43;;
75823;SDS011;64457;51.976;9.834;2023-09-19T07:49:34;13.03;;;2.60;;
75823;SDS011;64457;51.976;9.834;2023-09-19T07:52:03;10.60;;;2.10;;
75823;SDS011;64457;51.976;9.834;2023-09-19T07:54:31;15.77;;;2.57;;
75823;SDS011;64457;51.976;9.834;2023-09-19T07:57:00;10.00;;;2.10;;
75823;SDS011;64457;51.976;9.834;2023-09-19T07:59:28;12.43;;;2.00;;
75823;SDS011;64457;51.976;9.834;2023-09-19T08:01:56;11.00;;;2.23;;
75823;SDS011;64457;51.976;9.834;2023-09-19T08:04:25;14.03;;;2.10;;
75823;SDS011;64457;51.976;9.834;2023-09-19T08:06:55;7.90;;;1.87;;
75823;SDS011;64457;51.976;9.834;2023-09-19T08:09:25;17.00;;;2.10;;
75823;SDS011;64457;51.976;9.834;2023-09-19T08:11:58;16.57;;;2.63;;
75823;SDS011;64457;51.976;9.834;2023-09-19T08:14:30;9.07;;;1.70;;
75823;SDS011;64457;51.976;9.834;2023-09-19T08:16:59;13.60;;;1.90;;
75823;SDS011;64457;51.976;9.834;2023-09-19T08:19:28;13.50;;;2.20;;
75823;SDS011;64457;51.976;9.834;2023-09-19T08:21:57;8.60;;;1.57;;
75823;SDS011;64457;51.976;9.834;2023-09-19T08:24:26;10.57;;;2.03;;
75823;SDS011;64457;51.976;9.834;2023-09-19T08:26:54;11.07;;;2.30;;
75823;SDS011;64457;51.976;9.834;2023-09-19T08:29:23;9.33;;;1.97;;
75823;SDS011;64457;51.976;9.834;2023-09-19T08:31:53;11.97;;;2.57;;
75823;SDS011;64457;51.976;9.834;2023-09-19T08:34:22;8.20;;;1.57;;
75823;SDS011;64457;51.976;9.834;2023-09-19T08:36:53;9.73;;;1.77;;
75823;SDS011;64457;51.976;9.834;2023-09-19T08:39:22;14.10;;;2.03;;
75823;SDS011;64457;51.976;9.834;2023-09-19T08:41:56;11.73;;;1.83;;
75823;SDS011;64457;51.976;9.834;2023-09-19T08:44:24;7.97;;;1.50;;
75823;SDS011;64457;51.976;9.834;2023-09-19T08:46:54;10.63;;;2.17;;
75823;SDS011;64457;51.976;9.834;2023-09-19T08:49:33;7.63;;;1.73;;
75823;SDS011;64457;51.976;9.834;2023-09-19T08:52:16;16.70;;;2.20;;
75823;SDS011;64457;51.976;9.834;2023-09-19T08:54:49;15.23;;;2.10;;
75823;SDS011;64457;51.976;9.834;2023-09-19T08:57:19;9.60;;;1.80;;
75823;SDS011;64457;51.976;9.834;2023-09-19T08:59:48;11.47;;;1.90;;
75823;SDS011;64457;51.976;9.834;2023-09-19T09:02:19;8.67;;;1.87;;
75823;SDS011;64457;51.976;9.834;2023-09-19T09:04:51;8.70;;;2.17;;
75823;SDS011;64457;51.976;9.834;2023-09-19T09:07:24;11.10;;;1.93;;
75823;SDS011;64457;51.976;9.834;2023-09-19T09:09:54;8.17;;;1.77;;
75823;SDS011;64457;51.976;9.834;2023-09-19T09:12:21;13.37;;;2.17;;
75823;SDS011;64457;51.976;9.834;2023-09-19T09:14:51;9.33;;;1.97;;
75823;SDS011;64457;51.976;9.834;2023-09-19T09:17:18;16.57;;;2.33;;
75823;SDS011;64457;51.976;9.834;2023-09-19T09:19:46;9.50;;;2.00;;
75823;SDS011;64457;51.976;9.834;2023-09-19T09:22:14;7.43;;;1.83;;
75823;SDS011;64457;51.976;9.834;2023-09-19T09:24:52;11.67;;;2.20;;
75823;SDS011;64457;51.976;9.834;2023-09-19T09:27:22;10.03;;;1.83;;
75823;SDS011;64457;51.976;9.834;2023-09-19T09:29:51;9.47;;;1.97;;
75823;SDS011;64457;51.976;9.834;2023-09-19T09:32:22;8.87;;;1.83;;
75823;SDS011;64457;51.976;9.834;2023-09-19T09:34:51;12.07;;;2.30;;
75823;SDS011;64457;51.976;9.834;2023-09-19T09:37:20;8.53;;;1.87;;
75823;SDS011;64457;51.976;9.834;2023-09-19T09:39:53;7.47;;;1.80;;
75823;SDS011;64457;51.976;9.834;2023-09-19T09:42:30;13.67;;;2.50;;
75823;SDS011;64457;51.976;9.834;2023-09-19T09:45:13;9.47;;;2.03;;
75823;SDS011;64457;51.976;9.834;2023-09-19T09:47:45;12.07;;;1.90;;
75823;SDS011;64457;51.976;9.834;2023-09-19T09:50:24;10.20;;;1.77;;
75823;SDS011;64457;51.976;9.834;2023-09-19T09:53:05;10.27;;;2.23;;
75823;SDS011;64457;51.976;9.834;2023-09-19T09:56:01;7.80;;;2.27;;
75823;SDS011;64457;51.976;9.834;2023-09-19T09:58:32;13.47;;;2.33;;
75823;SDS011;64457;51.976;9.834;2023-09-19T10:01:02;7.13;;;1.90;;
75823;SDS011;64457;51.976;9.834;2023-09-19T10:03:35;8.10;;;1.63;;
75823;SDS011;64457;51.976;9.834;2023-09-19T10:06:07;9.73;;;2.80;;
75823;SDS011;64457;51.976;9.834;2023-09-19T10:09:00;9.13;;;2.03;;
75823;SDS011;64457;51.976;9.834;2023-09-19T10:11:33;11.73;;;2.47;;
75823;SDS011;64457;51.976;9.834;2023-09-19T10:14:05;11.83;;;2.10;;
75823;SDS011;64457;51.976;9.834;2023-09-19T10:16:35;6.07;;;1.90;;
75823;SDS011;64457;51.976;9.834;2023-09-19T10:19:07;12.50;;;2.33;;
75823;SDS011;64457;51.976;9.834;2023-09-19T10:21:36;13.13;;;2.60;;
75823;SDS011;64457;51.976;9.834;2023-09-19T10:24:05;8.13;;;2.37;;
75823;SDS011;64457;51.976;9.834;2023-09-19T10:26:36;11.00;;;2.30;;
75823;SDS011;64457;51.976;9.834;2023-09-19T10:29:08;10.60;;;2.20;;
75823;SDS011;64457;51.976;9.834;2023-09-19T10:31:39;10.53;;;2.27;;
75823;SDS011;64457;51.976;9.834;2023-09-19T10:34:12;12.20;;;1.93;;
75823;SDS011;64457;51.976;9.834;2023-09-19T10:36:43;12.20;;;2.70;;
75823;SDS011;64457;51.976;9.834;2023-09-19T10:39:14;9.23;;;2.20;;
75823;SDS011;64457;51.976;9.834;2023-09-19T10:41:49;10.23;;;2.43;;
75823;SDS011;64457;51.976;9.834;2023-09-19T10:44:21;11.70;;;2.53;;
75823;SDS011;64457;51.976;9.834;2023-09-19T10:46:51;13.23;;;2.70;;
75823;SDS011;64457;51.976;9.834;2023-09-19T10:49:19;11.83;;;2.50;;
75823;SDS011;64457;51.976;9.834;2023-09-19T10:51:49;11.57;;;2.50;;
75823;SDS011;64457;51.976;9.834;2023-09-19T10:54:24;11.27;;;2.63;;
75823;SDS011;64457;51.976;9.834;2023-09-19T10:56:59;7.90;;;2.33;;
75823;SDS011;64457;51.976;9.834;2023-09-19T10:59:30;11.03;;;2.77;;
75823;SDS011;64457;51.976;9.834;2023-09-19T11:02:00;9.90;;;2.20;;
75823;SDS011;64457;51.976;9.834;2023-09-19T11:04:43;15.37;;;2.50;;
75823;SDS011;64457;51.976;9.834;2023-09-19T11:07:14;14.20;;;2.70;;
75823;SDS011;64457;51.976;9.834;2023-09-19T11:09:45;10.50;;;2.53;;
75823;SDS011;64457;51.976;9.834;2023-09-19T11:18:51;12.57;;;3.00;;
75823;SDS011;64457;51.976;9.834;2023-09-19T11:21:42;21.33;;;2.73;;
75823;SDS011;64457;51.976;9.834;2023-09-19T11:24:28;10.00;;;2.47;;
75823;SDS011;64457;51.976;9.834;2023-09-19T11:27:11;12.07;;;2.23;;
75823;SDS011;64457;51.976;9.834;2023-09-19T11:29:44;11.77;;;2.17;;
75823;SDS011;64457;51.976;9.834;2023-09-19T11:32:14;9.70;;;2.03;;
75823;SDS011;64457;51.976;9.834;2023-09-19T11:34:46;8.90;;;2.13;;
75823;SDS011;64457;51.976;9.834;2023-09-19T11:40:36;9.67;;;2.10;;
75823;SDS011;64457;51.976;9.834;2023-09-19T11:46:08;10.10;;;2.70;;
75823;SDS011;64457;51.976;9.834;2023-09-19T11:48:38;6.77;;;1.63;;
75823;SDS011;64457;51.976;9.834;2023-09-19T11:51:16;7.47;;;1.77;;
75823;SDS011;64457;51.976;9.834;2023-09-19T11:53:48;7.60;;;2.07;;
75823;SDS011;64457;51.976;9.834;2023-09-19T11:56:17;11.00;;;2.03;;
75823;SDS011;64457;51.976;9.834;2023-09-19T11:58:49;10.13;;;2.50;;
75823;SDS011;64457;51.976;9.834;2023-09-19T12:01:22;10.80;;;2.33;;
75823;SDS011;64457;51.976;9.834;2023-09-19T12:03:54;9.70;;;2.30;;
75823;SDS011;64457;51.976;9.834;2023-09-19T12:06:24;12.47;;;2.30;;
75823;SDS011;64457;51.976;9.834;2023-09-19T12:08:56;9.30;;;2.50;;
75823;SDS011;64457;51.976;9.834;2023-09-19T12:11:26;8.10;;;1.90;;
75823;SDS011;64457;51.976;9.834;2023-09-19T12:14:01;7.43;;;1.87;;
75823;SDS011;64457;51.976;9.834;2023-09-19T12:16:30;9.43;;;2.10;;
75823;SDS011;64457;51.976;9.834;2023-09-19T12:18:58;9.13;;;2.17;;
75823;SDS011;64457;51.976;9.834;2023-09-19T12:21:53;8.57;;;2.23;;
75823;SDS011;64457;51.976;9.834;2023-09-19T12:24:23;14.30;;;2.63;;
75823;SDS011;64457;51.976;9.834;2023-09-19T12:26:56;9.30;;;2.10;;
75823;SDS011;64457;51.976;9.834;2023-09-19T12:29:29;10.23;;;2.53;;
75823;SDS011;64457;51.976;9.834;2023-09-19T12:32:01;11.67;;;2.50;;
75823;SDS011;64457;51.976;9.834;2023-09-19T12:34:31;6.90;;;1.90;;
75823;SDS011;64457;51.976;9.834;2023-09-19T12:37:05;8.13;;;2.33;;
75823;SDS011;64457;51.976;9.834;2023-09-19T12:39:41;10.63;;;2.53;;
75823;SDS011;64457;51.976;9.834;2023-09-19T12:42:14;11.33;;;2.63;;
75823;SDS011;64457;51.976;9.834;2023-09-19T12:44:44;9.10;;;2.90;;
75823;SDS011;64457;51.976;9.834;2023-09-19T12:47:15;12.30;;;2.60;;
75823;SDS011;64457;51.976;9.834;2023-09-19T12:52:46;8.17;;;2.03;;
75823;SDS011;64457;51.976;9.834;2023-09-19T12:55:21;9.63;;;2.03;;
75823;SDS011;64457;51.976;9.834;2023-09-19T12:57:57;11.50;;;2.40;;
75823;SDS011;64457;51.976;9.834;2023-09-19T13:00:31;8.50;;;2.50;;
75823;SDS011;64457;51.976;9.834;2023-09-19T13:03:16;8.87;;;2.53;;
75823;SDS011;64457;51.976;9.834;2023-09-19T13:05:50;12.00;;;3.03;;
75823;SDS011;64457;51.976;9.834;2023-09-19T13:08:30;9.40;;;2.13;;
75823;SDS011;64457;51.976;9.834;2023-09-19T13:11:08;7.43;;;2.20;;
75823;SDS011;64457;51.976;9.834;2023-09-19T13:13:38;9.83;;;2.77;;
75823;SDS011;64457;51.976;9.834;2023-09-19T13:16:09;8.07;;;2.40;;
75823;SDS011;64457;51.976;9.834;2023-09-19T13:18:45;9.80;;;2.70;;
75823;SDS011;64457;51.976;9.834;2023-09-19T13:21:28;12.23;;;2.40;;
75823;SDS011;64457;51.976;9.834;2023-09-19T13:24:18;16.10;;;2.30;;
75823;SDS011;64457;51.976;9.834;2023-09-19T13:26:55;11.90;;;2.83;;
75823;SDS011;64457;51.976;9.834;2023-09-19T13:29:25;8.03;;;2.60;;
75823;SDS011;64457;51.976;9.834;2023-09-19T13:31:53;9.57;;;2.20;;
75823;SDS011;64457;51.976;9.834;2023-09-19T13:34:24;10.00;;;2.50;;
75823;SDS011;64457;51.976;9.834;2023-09-19T13:36:52;11.13;;;3.03;;
75823;SDS011;64457;51.976;9.834;2023-09-19T13:39:20;7.53;;;2.07;;
75823;SDS011;64457;51.976;9.834;2023-09-19T13:41:50;11.50;;;2.70;;
75823;SDS011;64457;51.976;9.834;2023-09-19T13:44:18;15.37;;;2.80;;
75823;SDS011;64457;51.976;9.834;2023-09-19T13:46:47;14.70;;;2.40;;
75823;SDS011;64457;51.976;9.834;2023-09-19T13:49:17;7.77;;;2.30;;
75823;SDS011;64457;51.976;9.834;2023-09-19T13:51:49;11.97;;;2.40;;
75823;SDS011;64457;51.976;9.834;2023-09-19T13:54:17;8.03;;;2.03;;
75823;SDS011;64457;51.976;9.834;2023-09-19T13:56:46;11.77;;;2.60;;
75823;SDS011;64457;51.976;9.834;2023-09-19T13:59:16;8.00;;;2.30;;
75823;SDS011;64457;51.976;9.834;2023-09-19T14:01:43;9.15;;;2.40;;
75823;SDS011;64457;51.976;9.834;2023-09-19T14:04:11;8.50;;;2.13;;
75823;SDS011;64457;51.976;9.834;2023-09-19T14:06:41;10.20;;;2.20;;
75823;SDS011;64457;51.976;9.834;2023-09-19T14:09:10;20.77;;;2.70;;
75823;SDS011;64457;51.976;9.834;2023-09-19T14:11:38;9.67;;;2.80;;
75823;SDS011;64457;51.976;9.834;2023-09-19T14:14:08;9.17;;;2.20;;
75823;SDS011;64457;51.976;9.834;2023-09-19T14:16:36;12.27;;;1.97;;
75823;SDS011;64457;51.976;9.834;2023-09-19T14:19:04;10.70;;;2.77;;
75823;SDS011;64457;51.976;9.834;2023-09-19T14:21:34;8.63;;;1.83;;
75823;SDS011;64457;51.976;9.834;2023-09-19T14:24:04;8.10;;;2.20;;
75823;SDS011;64457;51.976;9.834;2023-09-19T14:26:39;9.03;;;2.20;;
75823;SDS011;64457;51.976;9.834;2023-09-19T14:29:06;10.50;;;2.10;;
75823;SDS011;64457;51.976;9.834;2023-09-19T14:31:36;15.13;;;2.10;;
75823;SDS011;64457;51.976;9.834;2023-09-19T14:34:06;8.53;;;2.40;;
75823;SDS011;64457;51.976;9.834;2023-09-19T14:36:36;8.93;;;2.20;;
75823;SDS011;64457;51.976;9.834;2023-09-19T14:39:04;11.53;;;2.10;;
75823;SDS011;64457;51.976;9.834;2023-09-19T14:41:33;9.43;;;2.43;;
75823;SDS011;64457;51.976;9.834;2023-09-19T14:44:06;9.40;;;2.40;;
75823;SDS011;64457;51.976;9.834;2023-09-19T14:46:35;7.17;;;1.70;;
75823;SDS011;64457;51.976;9.834;2023-09-19T14:49:03;11.23;;;2.10;;
75823;SDS011;64457;51.976;9.834;2023-09-19T14:51:31;9.00;;;2.03;;
75823;SDS011;64457;51.976;9.834;2023-09-19T14:54:02;7.10;;;1.90;;
75823;SDS011;64457;51.976;9.834;2023-09-19T14:56:30;9.13;;;2.20;;
75823;SDS011;64457;51.976;9.834;2023-09-19T14:58:58;14.93;;;2.40;;
75823;SDS011;64457;51.976;9.834;2023-09-19T15:01:27;9.60;;;1.83;;
75823;SDS011;64457;51.976;9.834;2023-09-19T15:03:56;7.20;;;1.90;;
75823;SDS011;64457;51.976;9.834;2023-09-19T15:06:26;9.80;;;2.33;;
75823;SDS011;64457;51.976;9.834;2023-09-19T15:08:53;11.43;;;1.90;;
75823;SDS011;64457;51.976;9.834;2023-09-19T15:11:22;8.87;;;1.70;;
75823;SDS011;64457;51.976;9.834;2023-09-19T15:13:51;8.93;;;2.10;;
75823;SDS011;64457;51.976;9.834;2023-09-19T15:16:19;7.43;;;1.67;;
75823;SDS011;64457;51.976;9.834;2023-09-19T15:18:49;8.17;;;1.73;;